NORTHEAST SUFFOLK  -  Dense Fog Advisory Dense Fog Advisory        NORTHERN NASSAU  -  Dense Fog Advisory Dense Fog Advisory        NORTHERN QUEENS  -  Dense Fog Advisory Dense Fog Advisory     Dense Fog Advisory Dense Fog Advisory        NORTHWEST SUFFOLK  -  Dense Fog Advisory Dense Fog Advisory        SOUTHEAST SUFFOLK  -  Dense Fog Advisory Dense Fog Advisory        SOUTHERN NASSAU  -  Dense Fog Advisory Dense Fog Advisory        SOUTHERN QUEENS  -  Dense Fog Advisory Dense Fog Advisory     Dense Fog Advisory Dense Fog Advisory        SOUTHWEST SUFFOLK  -  Dense Fog Advisory Dense Fog Advisory      

Active alerts

Northern Queens
  Details for Northern Queens Dense Fog Advisory  +1 additional alert
Southern Queens
  Details for Southern Queens Dense Fog Advisory  +1 additional alert
Northern Nassau
  Details for Northern Nassau Dense Fog Advisory
Southern Nassau
  Details for Southern Nassau Dense Fog Advisory
Northwest Suffolk
  Details for Northwest Suffolk Dense Fog Advisory
Southwest Suffolk
  Details for Southwest Suffolk Dense Fog Advisory
Northeast Suffolk
  Details for Northeast Suffolk Dense Fog Advisory
Southeast Suffolk
  Details for Southeast Suffolk Dense Fog Advisory


WXM80 ListenWXM80 Stop

You find our weather info also at:

UK Metoffice

WeatherCloud

Weather Underground

Northeastern Weather Network

AWEKAS

Citizen Weather Observer Program (CWOP)

HAMweather, WeatherForYou, PWS Weather


Weather Underground History page Text

Daily Summary for January 22, 2018 Units:  Both    English   Metric
« Previous Day
Next Day »
Daily Weekly Monthly Yearly Custom
  High: Low: Average:
Temperature: TemperatureF °F /  -17.8 °C 36.4 °F /  2.4 °C 38.2 °F /  3.4 °C
Dew Point: DewpointF °F /  -17.8 °C 34.7 °F /  1.5 °C 36.1 °F /  2.3 °C
Humidity: Humidity % 80 % 92 %
Wind Speed: WindSpeedMPH mph /  0 km/h - 2.8 mph /  4.5 km/h
Wind Gust: WindSpeedGustMPH mph /  0 km/h - -
Wind:- - East
Pressure: PressureIn in /  0 hPa 29.84 in /  1010.4 hPa -
Precipitation: 0.00 in /  0 mm    
Historical Graphs
 
 
Tabular Data for January 22, 2018
Time Temperature Dew Point Pressure Wind Wind Speed Wind Gust Humidity Rainfall Rate (Hourly)
TemperatureF °F /  -17.8 °C DewpointF °F /  -17.8 °C PressureIn in /  0 hPa Calm     Humidity % HourlyPrecipIn in /  0 mm
00:09 41.8 °F /  5.4 °C 36.1 °F /  2.3 °C 29.93 in /  1013.4 hPa Calm     80 % 0.00 in /  0 mm
00:14 41.7 °F /  5.4 °C 36.3 °F /  2.4 °C 29.94 in /  1013.8 hPa Calm     81 % 0.00 in /  0 mm
00:19 41.5 °F /  5.3 °C 36.1 °F /  2.3 °C 29.93 in /  1013.4 hPa Calm     81 % 0.00 in /  0 mm
00:24 41.5 °F /  5.3 °C 36.1 °F /  2.3 °C 29.94 in /  1013.8 hPa Calm     81 % 0.00 in /  0 mm
00:29 41.4 °F /  5.2 °C 35.7 °F /  2.1 °C 29.93 in /  1013.4 hPa Calm     80 % 0.00 in /  0 mm
00:39 41.2 °F /  5.1 °C 35.5 °F /  1.9 °C 29.93 in /  1013.4 hPa Calm     80 % 0.00 in /  0 mm
00:44 41.2 °F /  5.1 °C 35.5 °F /  1.9 °C 29.92 in /  1013.1 hPa Calm     80 % 0.00 in /  0 mm
00:49 41.1 °F /  5.1 °C 35.4 °F /  1.9 °C 29.92 in /  1013.1 hPa Calm     80 % 0.00 in /  0 mm
01:04 40.9 °F /  4.9 °C 35.5 °F /  1.9 °C 29.92 in /  1013.1 hPa Calm     81 % 0.00 in /  0 mm
01:09 40.9 °F /  4.9 °C 35.5 °F /  1.9 °C 29.92 in /  1013.1 hPa Calm     81 % 0.00 in /  0 mm
01:14 40.8 °F /  4.9 °C 35.7 °F /  2.1 °C 29.92 in /  1013.1 hPa Calm     82 % 0.00 in /  0 mm
01:24 40.7 °F /  4.8 °C 35.6 °F /  2 °C 29.92 in /  1013.1 hPa Calm     82 % 0.00 in /  0 mm
01:35 40.7 °F /  4.8 °C 35.9 °F /  2.2 °C 29.92 in /  1013.1 hPa Calm     83 % 0.00 in /  0 mm
01:40 40.6 °F /  4.8 °C 35.5 °F /  1.9 °C 29.92 in /  1013.1 hPa Calm     82 % 0.00 in /  0 mm
01:45 40.6 °F /  4.8 °C 35.8 °F /  2.1 °C 29.92 in /  1013.1 hPa Calm     83 % 0.00 in /  0 mm
01:50 40.6 °F /  4.8 °C 35.8 °F /  2.1 °C 29.92 in /  1013.1 hPa Calm     83 % 0.00 in /  0 mm
01:55 40.5 °F /  4.7 °C 35.7 °F /  2.1 °C 29.92 in /  1013.1 hPa Calm     83 % 0.00 in /  0 mm
02:00 40.5 °F /  4.7 °C 36.0 °F /  2.2 °C 29.92 in /  1013.1 hPa Calm     84 % 0.00 in /  0 mm
02:05 40.5 °F /  4.7 °C 36.0 °F /  2.2 °C 29.92 in /  1013.1 hPa Calm     84 % 0.00 in /  0 mm
02:10 40.5 °F /  4.7 °C 36.3 °F /  2.4 °C 29.92 in /  1013.1 hPa Calm     85 % 0.00 in /  0 mm
02:15 40.4 °F /  4.7 °C 36.2 °F /  2.3 °C 29.91 in /  1012.8 hPa Calm     85 % 0.00 in /  0 mm
02:20 40.4 °F /  4.7 °C 36.2 °F /  2.3 °C 29.91 in /  1012.8 hPa Calm     85 % 0.00 in /  0 mm
02:25 40.3 °F /  4.6 °C 36.1 °F /  2.3 °C 29.91 in /  1012.8 hPa Calm     85 % 0.00 in /  0 mm
02:30 40.3 °F /  4.6 °C 36.4 °F /  2.4 °C 29.91 in /  1012.8 hPa Calm     86 % 0.00 in /  0 mm
02:35 40.3 °F /  4.6 °C 36.4 °F /  2.4 °C 29.91 in /  1012.8 hPa SW 0.1 mph /  0.2 km/h 1.2 mph /  1.9 km/h 86 % 0.00 in /  0 mm
02:40 40.3 °F /  4.6 °C 36.7 °F /  2.6 °C 29.91 in /  1012.8 hPa Calm     87 % 0.00 in /  0 mm
02:45 40.3 °F /  4.6 °C 37.0 °F /  2.8 °C 29.92 in /  1013.1 hPa Calm     88 % 0.00 in /  0 mm
02:50 40.3 °F /  4.6 °C 37.3 °F /  2.9 °C 29.91 in /  1012.8 hPa Calm     89 % 0.00 in /  0 mm
02:55 40.2 °F /  4.6 °C 37.2 °F /  2.9 °C 29.91 in /  1012.8 hPa Calm     89 % 0.00 in /  0 mm
03:00 40.2 °F /  4.6 °C 37.2 °F /  2.9 °C 29.91 in /  1012.8 hPa Calm     89 % 0.00 in /  0 mm
03:05 40.1 °F /  4.5 °C 37.1 °F /  2.8 °C 29.91 in /  1012.8 hPa Calm   1.2 mph /  1.9 km/h 89 % 0.00 in /  0 mm
03:11 39.9 °F /  4.4 °C 36.6 °F /  2.6 °C 29.91 in /  1012.8 hPa Calm     88 % 0.00 in /  0 mm
03:21 39.6 °F /  4.2 °C 36.3 °F /  2.4 °C 29.90 in /  1012.4 hPa Calm     88 % 0.00 in /  0 mm
03:26 39.5 °F /  4.2 °C 36.2 °F /  2.3 °C 29.91 in /  1012.8 hPa Calm   1.2 mph /  1.9 km/h 88 % 0.00 in /  0 mm
03:31 39.4 °F /  4.1 °C 36.1 °F /  2.3 °C 29.91 in /  1012.8 hPa SW 0.1 mph /  0.2 km/h 1.2 mph /  1.9 km/h 88 % 0.00 in /  0 mm
03:36 39.3 °F /  4.1 °C 36.0 °F /  2.2 °C 29.91 in /  1012.8 hPa Calm   1.2 mph /  1.9 km/h 88 % 0.00 in /  0 mm
03:41 39.2 °F /  4 °C 36.2 °F /  2.3 °C 29.91 in /  1012.8 hPa Calm     89 % 0.00 in /  0 mm
03:46 39.1 °F /  3.9 °C 36.1 °F /  2.3 °C 29.91 in /  1012.8 hPa North 2.9 mph /  4.7 km/h 3.5 mph /  5.6 km/h 89 % 0.00 in /  0 mm
03:51 39.0 °F /  3.9 °C 36.0 °F /  2.2 °C 29.90 in /  1012.4 hPa Calm   1.2 mph /  1.9 km/h 89 % 0.00 in /  0 mm
03:56 38.9 °F /  3.8 °C 36.2 °F /  2.3 °C 29.91 in /  1012.8 hPa North 0.3 mph /  0.5 km/h 1.2 mph /  1.9 km/h 90 % 0.00 in /  0 mm
04:01 38.7 °F /  3.7 °C 35.7 °F /  2.1 °C 29.90 in /  1012.4 hPa Calm   2.3 mph /  3.7 km/h 89 % 0.00 in /  0 mm
04:11 38.4 °F /  3.6 °C 35.7 °F /  2.1 °C 29.90 in /  1012.4 hPa Calm     90 % 0.00 in /  0 mm
04:16 38.3 °F /  3.5 °C 35.6 °F /  2 °C 29.90 in /  1012.4 hPa Calm     90 % 0.00 in /  0 mm
04:22 38.2 °F /  3.4 °C 35.5 °F /  1.9 °C 29.90 in /  1012.4 hPa Calm     90 % 0.00 in /  0 mm
04:27 38.1 °F /  3.4 °C 35.4 °F /  1.9 °C 29.90 in /  1012.4 hPa Calm     90 % 0.00 in /  0 mm
04:37 38.0 °F /  3.3 °C 35.3 °F /  1.8 °C 29.90 in /  1012.4 hPa Calm     90 % 0.00 in /  0 mm
04:42 37.9 °F /  3.3 °C 35.2 °F /  1.8 °C 29.90 in /  1012.4 hPa Calm     90 % 0.00 in /  0 mm
04:47 37.9 °F /  3.3 °C 35.5 °F /  1.9 °C 29.90 in /  1012.4 hPa Calm     91 % 0.00 in /  0 mm
04:52 37.9 °F /  3.3 °C 35.5 °F /  1.9 °C 29.90 in /  1012.4 hPa Calm     91 % 0.00 in /  0 mm
04:57 37.8 °F /  3.2 °C 35.4 °F /  1.9 °C 29.90 in /  1012.4 hPa Calm     91 % 0.00 in /  0 mm
05:02 37.7 °F /  3.2 °C 35.3 °F /  1.8 °C 29.90 in /  1012.4 hPa Calm     91 % 0.00 in /  0 mm
05:07 37.7 °F /  3.2 °C 35.3 °F /  1.8 °C 29.91 in /  1012.8 hPa Calm     91 % 0.00 in /  0 mm
05:12 37.6 °F /  3.1 °C 35.2 °F /  1.8 °C 29.91 in /  1012.8 hPa Calm     91 % 0.00 in /  0 mm
05:17 37.6 °F /  3.1 °C 35.2 °F /  1.8 °C 29.91 in /  1012.8 hPa North 0.5 mph /  0.8 km/h 2.0 mph /  3.2 km/h 91 % 0.00 in /  0 mm
05:22 37.5 °F /  3.1 °C 35.1 °F /  1.7 °C 29.90 in /  1012.4 hPa Calm   1.2 mph /  1.9 km/h 91 % 0.00 in /  0 mm
05:27 37.5 °F /  3.1 °C 35.1 °F /  1.7 °C 29.90 in /  1012.4 hPa North 0.2 mph /  0.3 km/h 2.3 mph /  3.7 km/h 91 % 0.00 in /  0 mm
05:32 37.5 °F /  3.1 °C 35.1 °F /  1.7 °C 29.90 in /  1012.4 hPa North 0.1 mph /  0.2 km/h 2.3 mph /  3.7 km/h 91 % 0.00 in /  0 mm
05:37 37.5 °F /  3.1 °C 35.1 °F /  1.7 °C 29.90 in /  1012.4 hPa Calm   1.2 mph /  1.9 km/h 91 % 0.00 in /  0 mm
05:42 37.4 °F /  3 °C 35.3 °F /  1.8 °C 29.90 in /  1012.4 hPa North 0.4 mph /  0.6 km/h 1.2 mph /  1.9 km/h 92 % 0.00 in /  0 mm
05:52 37.3 °F /  2.9 °C 35.2 °F /  1.8 °C 29.91 in /  1012.8 hPa Calm     92 % 0.00 in /  0 mm
05:57 37.3 °F /  2.9 °C 35.2 °F /  1.8 °C 29.91 in /  1012.8 hPa Calm     92 % 0.00 in /  0 mm
06:07 37.3 °F /  2.9 °C 35.2 °F /  1.8 °C 29.91 in /  1012.8 hPa Calm     92 % 0.00 in /  0 mm
06:12 37.3 °F /  2.9 °C 35.2 °F /  1.8 °C 29.90 in /  1012.4 hPa North 0.4 mph /  0.6 km/h 2.0 mph /  3.2 km/h 92 % 0.00 in /  0 mm
06:18 37.2 °F /  2.9 °C 35.1 °F /  1.7 °C 29.90 in /  1012.4 hPa Calm     92 % 0.00 in /  0 mm
06:23 37.1 °F /  2.8 °C 35.0 °F /  1.7 °C 29.91 in /  1012.8 hPa Calm     92 % 0.00 in /  0 mm
06:28 37.1 °F /  2.8 °C 35.0 °F /  1.7 °C 29.91 in /  1012.8 hPa Calm     92 % 0.00 in /  0 mm
06:33 37.1 °F /  2.8 °C 35.0 °F /  1.7 °C 29.92 in /  1013.1 hPa Calm     92 % 0.00 in /  0 mm
06:38 37.1 °F /  2.8 °C 35.0 °F /  1.7 °C 29.92 in /  1013.1 hPa Calm     92 % 0.00 in /  0 mm
06:43 37.0 °F /  2.8 °C 34.9 °F /  1.6 °C 29.92 in /  1013.1 hPa Calm     92 % 0.00 in /  0 mm
06:48 37.0 °F /  2.8 °C 34.9 °F /  1.6 °C 29.92 in /  1013.1 hPa North 0.1 mph /  0.2 km/h 1.0 mph /  1.6 km/h 92 % 0.00 in /  0 mm
06:58 37.0 °F /  2.8 °C 34.9 °F /  1.6 °C 29.92 in /  1013.1 hPa Calm     92 % 0.00 in /  0 mm
07:03 37.0 °F /  2.8 °C 34.9 °F /  1.6 °C 29.92 in /  1013.1 hPa Calm     92 % 0.00 in /  0 mm
07:08 37.0 °F /  2.8 °C 34.9 °F /  1.6 °C 29.92 in /  1013.1 hPa Calm     92 % 0.00 in /  0 mm
07:13 36.9 °F /  2.7 °C 34.8 °F /  1.6 °C 29.92 in /  1013.1 hPa Calm     92 % 0.00 in /  0 mm
07:18 36.9 °F /  2.7 °C 34.8 °F /  1.6 °C 29.93 in /  1013.4 hPa Calm     92 % 0.00 in /  0 mm
07:23 36.9 °F /  2.7 °C 34.8 °F /  1.6 °C 29.93 in /  1013.4 hPa Calm     92 % 0.00 in /  0 mm
07:28 36.9 °F /  2.7 °C 34.8 °F /  1.6 °C 29.93 in /  1013.4 hPa Calm     92 % 0.00 in /  0 mm
07:33 36.9 °F /  2.7 °C 34.8 °F /  1.6 °C 29.93 in /  1013.4 hPa Calm     92 % 0.00 in /  0 mm
07:38 36.8 °F /  2.7 °C 34.7 °F /  1.5 °C 29.93 in /  1013.4 hPa Calm     92 % 0.00 in /  0 mm
07:43 36.9 °F /  2.7 °C 34.8 °F /  1.6 °C 29.94 in /  1013.8 hPa Calm     92 % 0.00 in /  0 mm
07:48 36.9 °F /  2.7 °C 35.1 °F /  1.7 °C 29.94 in /  1013.8 hPa North 0.4 mph /  0.6 km/h 1.0 mph /  1.6 km/h 93 % 0.00 in /  0 mm
07:53 36.9 °F /  2.7 °C 35.1 °F /  1.7 °C 29.94 in /  1013.8 hPa Calm     93 % 0.00 in /  0 mm
07:58 36.9 °F /  2.7 °C 35.1 °F /  1.7 °C 29.94 in /  1013.8 hPa North 0.4 mph /  0.6 km/h 2.3 mph /  3.7 km/h 93 % 0.00 in /  0 mm
08:03 37.0 °F /  2.8 °C 35.2 °F /  1.8 °C 29.94 in /  1013.8 hPa Calm     93 % 0.00 in /  0 mm
08:08 37.0 °F /  2.8 °C 35.2 °F /  1.8 °C 29.95 in /  1014.1 hPa Calm     93 % 0.00 in /  0 mm
08:13 37.1 °F /  2.8 °C 35.3 °F /  1.8 °C 29.95 in /  1014.1 hPa Calm     93 % 0.00 in /  0 mm
08:19 37.1 °F /  2.8 °C 35.3 °F /  1.8 °C 29.95 in /  1014.1 hPa North 0.5 mph /  0.8 km/h 1.0 mph /  1.6 km/h 93 % 0.00 in /  0 mm
08:24 37.2 °F /  2.9 °C 35.4 °F /  1.9 °C 29.95 in /  1014.1 hPa North 0.1 mph /  0.2 km/h 2.3 mph /  3.7 km/h 93 % 0.00 in /  0 mm
08:29 37.2 °F /  2.9 °C 35.4 °F /  1.9 °C 29.95 in /  1014.1 hPa Calm   3.5 mph /  5.6 km/h 93 % 0.00 in /  0 mm
08:34 37.2 °F /  2.9 °C 35.4 °F /  1.9 °C 29.96 in /  1014.4 hPa North 0.6 mph /  1 km/h 2.3 mph /  3.7 km/h 93 % 0.00 in /  0 mm
08:39 37.3 °F /  2.9 °C 35.7 °F /  2.1 °C 29.96 in /  1014.4 hPa North 0.5 mph /  0.8 km/h 3.5 mph /  5.6 km/h 94 % 0.00 in /  0 mm
08:44 37.3 °F /  2.9 °C 35.7 °F /  2.1 °C 29.97 in /  1014.8 hPa Calm     94 % 0.00 in /  0 mm
08:49 37.3 °F /  2.9 °C 35.7 °F /  2.1 °C 29.96 in /  1014.4 hPa Calm     94 % 0.00 in /  0 mm
08:54 37.4 °F /  3 °C 35.8 °F /  2.1 °C 29.96 in /  1014.4 hPa NE 0.7 mph /  1.1 km/h 3.0 mph /  4.8 km/h 94 % 0.00 in /  0 mm
08:59 37.3 °F /  2.9 °C 35.7 °F /  2.1 °C 29.97 in /  1014.8 hPa Calm     94 % 0.00 in /  0 mm
09:14 37.3 °F /  2.9 °C 35.7 °F /  2.1 °C 29.97 in /  1014.8 hPa ENE 1.0 mph /  1.6 km/h 3.5 mph /  5.6 km/h 94 % 0.00 in /  0 mm
09:19 37.3 °F /  2.9 °C 35.7 °F /  2.1 °C 29.97 in /  1014.8 hPa ENE 1.8 mph /  2.9 km/h 3.5 mph /  5.6 km/h 94 % 0.00 in /  0 mm
09:24 37.4 °F /  3 °C 35.8 °F /  2.1 °C 29.97 in /  1014.8 hPa ENE 1.3 mph /  2.1 km/h 3.0 mph /  4.8 km/h 94 % 0.00 in /  0 mm
09:29 37.4 °F /  3 °C 35.8 °F /  2.1 °C 29.97 in /  1014.8 hPa ENE 1.4 mph /  2.3 km/h 2.3 mph /  3.7 km/h 94 % 0.00 in /  0 mm
09:34 37.5 °F /  3.1 °C 35.9 °F /  2.2 °C 29.97 in /  1014.8 hPa ENE 0.7 mph /  1.1 km/h 3.5 mph /  5.6 km/h 94 % 0.00 in /  0 mm
09:39 37.6 °F /  3.1 °C 36.0 °F /  2.2 °C 29.97 in /  1014.8 hPa ENE 0.7 mph /  1.1 km/h 2.3 mph /  3.7 km/h 94 % 0.00 in /  0 mm
09:44 37.7 °F /  3.2 °C 36.1 °F /  2.3 °C 29.98 in /  1015.1 hPa ENE 0.1 mph /  0.2 km/h 3.5 mph /  5.6 km/h 94 % 0.00 in /  0 mm
09:49 37.8 °F /  3.2 °C 36.2 °F /  2.3 °C 29.98 in /  1015.1 hPa ENE 0.8 mph /  1.3 km/h 3.5 mph /  5.6 km/h 94 % 0.00 in /  0 mm
09:54 37.8 °F /  3.2 °C 36.2 °F /  2.3 °C 29.97 in /  1014.8 hPa ENE 1.8 mph /  2.9 km/h 3.5 mph /  5.6 km/h 94 % 0.00 in /  0 mm
09:59 37.9 °F /  3.3 °C 36.3 °F /  2.4 °C 29.97 in /  1014.8 hPa ENE 1.8 mph /  2.9 km/h 3.5 mph /  5.6 km/h 94 % 0.00 in /  0 mm
10:04 38.0 °F /  3.3 °C 36.4 °F /  2.4 °C 29.97 in /  1014.8 hPa ENE 1.7 mph /  2.7 km/h 3.5 mph /  5.6 km/h 94 % 0.00 in /  0 mm
10:09 38.2 °F /  3.4 °C 36.6 °F /  2.6 °C 29.97 in /  1014.8 hPa ENE 2.3 mph /  3.7 km/h 3.5 mph /  5.6 km/h 94 % 0.00 in /  0 mm
10:14 38.4 °F /  3.6 °C 36.8 °F /  2.7 °C 29.97 in /  1014.8 hPa ENE 1.6 mph /  2.6 km/h 3.5 mph /  5.6 km/h 94 % 0.00 in /  0 mm
10:20 38.6 °F /  3.7 °C 37.0 °F /  2.8 °C 29.97 in /  1014.8 hPa ENE 2.4 mph /  3.9 km/h 3.5 mph /  5.6 km/h 94 % 0.00 in /  0 mm
10:25 38.7 °F /  3.7 °C 37.1 °F /  2.8 °C 29.96 in /  1014.4 hPa ENE 3.9 mph /  6.3 km/h 5.8 mph /  9.3 km/h 94 % 0.00 in /  0 mm
10:30 38.8 °F /  3.8 °C 37.2 °F /  2.9 °C 29.96 in /  1014.4 hPa East 2.0 mph /  3.2 km/h 3.5 mph /  5.6 km/h 94 % 0.00 in /  0 mm
10:35 38.9 °F /  3.8 °C 37.3 °F /  2.9 °C 29.97 in /  1014.8 hPa ENE 2.8 mph /  4.5 km/h 4.6 mph /  7.4 km/h 94 % 0.00 in /  0 mm
10:40 38.9 °F /  3.8 °C 37.3 °F /  2.9 °C 29.97 in /  1014.8 hPa ENE 2.1 mph /  3.4 km/h 3.5 mph /  5.6 km/h 94 % 0.00 in /  0 mm
10:45 39.0 °F /  3.9 °C 37.4 °F /  3 °C 29.97 in /  1014.8 hPa ENE 2.8 mph /  4.5 km/h 3.5 mph /  5.6 km/h 94 % 0.00 in /  0 mm
10:50 39.0 °F /  3.9 °C 37.1 °F /  2.8 °C 29.97 in /  1014.8 hPa ENE 1.6 mph /  2.6 km/h 4.6 mph /  7.4 km/h 93 % 0.00 in /  0 mm
10:55 39.0 °F /  3.9 °C 37.1 °F /  2.8 °C 29.97 in /  1014.8 hPa NE 1.6 mph /  2.6 km/h 3.5 mph /  5.6 km/h 93 % 0.00 in /  0 mm
11:00 39.2 °F /  4 °C 37.3 °F /  2.9 °C 29.97 in /  1014.8 hPa NE 0.7 mph /  1.1 km/h 2.3 mph /  3.7 km/h 93 % 0.00 in /  0 mm
11:05 39.3 °F /  4.1 °C 37.4 °F /  3 °C 29.97 in /  1014.8 hPa NE 1.8 mph /  2.9 km/h 3.5 mph /  5.6 km/h 93 % 0.00 in /  0 mm
11:10 39.3 °F /  4.1 °C 37.4 °F /  3 °C 29.97 in /  1014.8 hPa NE 1.3 mph /  2.1 km/h 3.5 mph /  5.6 km/h 93 % 0.00 in /  0 mm
11:15 39.3 °F /  4.1 °C 37.4 °F /  3 °C 29.97 in /  1014.8 hPa NNE 2.4 mph /  3.9 km/h 5.0 mph /  8 km/h 93 % 0.00 in /  0 mm
11:20 39.3 °F /  4.1 °C 37.4 °F /  3 °C 29.97 in /  1014.8 hPa NE 2.1 mph /  3.4 km/h 3.5 mph /  5.6 km/h 93 % 0.00 in /  0 mm
11:25 39.3 °F /  4.1 °C 37.4 °F /  3 °C 29.96 in /  1014.4 hPa NE 2.2 mph /  3.5 km/h 3.5 mph /  5.6 km/h 93 % 0.00 in /  0 mm
11:30 39.3 °F /  4.1 °C 37.2 °F /  2.9 °C 29.96 in /  1014.4 hPa ENE 1.7 mph /  2.7 km/h 3.5 mph /  5.6 km/h 92 % 0.00 in /  0 mm
11:35 39.4 °F /  4.1 °C 37.5 °F /  3.1 °C 29.95 in /  1014.1 hPa ENE 0.6 mph /  1 km/h 2.0 mph /  3.2 km/h 93 % 0.00 in /  0 mm
11:40 39.6 °F /  4.2 °C 37.7 °F /  3.2 °C 29.95 in /  1014.1 hPa ENE 2.5 mph /  4 km/h 3.5 mph /  5.6 km/h 93 % 0.00 in /  0 mm
11:41 39.6 °F /  4.2 °C 37.7 °F /  3.2 °C 29.95 in /  1014.1 hPa ENE 2.2 mph /  3.5 km/h 3.5 mph /  5.6 km/h 93 % 0.00 in /  0 mm
11:46 39.7 °F /  4.3 °C 37.8 °F /  3.2 °C 29.94 in /  1013.8 hPa East 2.5 mph /  4 km/h 4.6 mph /  7.4 km/h 93 % 0.00 in /  0 mm
11:51 39.9 °F /  4.4 °C 38.0 °F /  3.3 °C 29.94 in /  1013.8 hPa ENE 2.9 mph /  4.7 km/h 4.6 mph /  7.4 km/h 93 % 0.00 in /  0 mm
11:57 39.9 °F /  4.4 °C 38.0 °F /  3.3 °C 29.94 in /  1013.8 hPa ENE 3.0 mph /  4.8 km/h 6.9 mph /  11.1 km/h 93 % 0.00 in /  0 mm
12:02 39.9 °F /  4.4 °C 38.0 °F /  3.3 °C 29.94 in /  1013.8 hPa NE 3.3 mph /  5.3 km/h 5.0 mph /  8 km/h 93 % 0.00 in /  0 mm
12:07 39.9 °F /  4.4 °C 37.8 °F /  3.2 °C 29.94 in /  1013.8 hPa NE 2.2 mph /  3.5 km/h 4.6 mph /  7.4 km/h 92 % 0.00 in /  0 mm
12:12 39.9 °F /  4.4 °C 37.8 °F /  3.2 °C 29.94 in /  1013.8 hPa NE 1.0 mph /  1.6 km/h 4.6 mph /  7.4 km/h 92 % 0.00 in /  0 mm
12:17 40.0 °F /  4.4 °C 37.9 °F /  3.3 °C 29.94 in /  1013.8 hPa NE 3.4 mph /  5.5 km/h 4.6 mph /  7.4 km/h 92 % 0.00 in /  0 mm
12:22 40.1 °F /  4.5 °C 38.0 °F /  3.3 °C 29.93 in /  1013.4 hPa ENE 2.5 mph /  4 km/h 4.6 mph /  7.4 km/h 92 % 0.00 in /  0 mm
12:27 40.0 °F /  4.4 °C 37.9 °F /  3.3 °C 29.93 in /  1013.4 hPa ENE 3.6 mph /  5.8 km/h 7.0 mph /  11.3 km/h 92 % 0.00 in /  0 mm
12:32 40.0 °F /  4.4 °C 37.9 °F /  3.3 °C 29.93 in /  1013.4 hPa NE 4.2 mph /  6.8 km/h 6.9 mph /  11.1 km/h 92 % 0.00 in /  0 mm
12:37 40.0 °F /  4.4 °C 37.9 °F /  3.3 °C 29.93 in /  1013.4 hPa ENE 3.9 mph /  6.3 km/h 6.9 mph /  11.1 km/h 92 % 0.00 in /  0 mm
12:42 39.9 °F /  4.4 °C 37.8 °F /  3.2 °C 29.92 in /  1013.1 hPa ENE 3.6 mph /  5.8 km/h 4.6 mph /  7.4 km/h 92 % 0.00 in /  0 mm
12:47 39.8 °F /  4.3 °C 37.7 °F /  3.2 °C 29.92 in /  1013.1 hPa ENE 4.0 mph /  6.4 km/h 5.8 mph /  9.3 km/h 92 % 0.00 in /  0 mm
12:52 39.8 °F /  4.3 °C 37.7 °F /  3.2 °C 29.92 in /  1013.1 hPa ENE 2.8 mph /  4.5 km/h 4.6 mph /  7.4 km/h 92 % 0.00 in /  0 mm
12:57 39.8 °F /  4.3 °C 37.7 °F /  3.2 °C 29.93 in /  1013.4 hPa East 6.3 mph /  10.1 km/h 8.1 mph /  13 km/h 92 % 0.00 in /  0 mm
13:02 39.7 °F /  4.3 °C 37.6 °F /  3.1 °C 29.93 in /  1013.4 hPa ENE 3.4 mph /  5.5 km/h 5.8 mph /  9.3 km/h 92 % 0.00 in /  0 mm
13:07 39.7 °F /  4.3 °C 37.6 °F /  3.1 °C 29.92 in /  1013.1 hPa ENE 2.5 mph /  4 km/h 4.6 mph /  7.4 km/h 92 % 0.00 in /  0 mm
13:12 39.7 °F /  4.3 °C 37.6 °F /  3.1 °C 29.93 in /  1013.4 hPa East 3.6 mph /  5.8 km/h 5.8 mph /  9.3 km/h 92 % 0.00 in /  0 mm
13:17 39.8 °F /  4.3 °C 37.7 °F /  3.2 °C 29.93 in /  1013.4 hPa East 2.0 mph /  3.2 km/h 3.5 mph /  5.6 km/h 92 % 0.00 in /  0 mm
13:22 39.9 °F /  4.4 °C 37.8 °F /  3.2 °C 29.93 in /  1013.4 hPa ENE 2.4 mph /  3.9 km/h 8.1 mph /  13 km/h 92 % 0.00 in /  0 mm
13:27 39.9 °F /  4.4 °C 37.8 °F /  3.2 °C 29.92 in /  1013.1 hPa ENE 3.0 mph /  4.8 km/h 3.5 mph /  5.6 km/h 92 % 0.00 in /  0 mm
13:32 40.0 °F /  4.4 °C 37.9 °F /  3.3 °C 29.92 in /  1013.1 hPa ENE 2.8 mph /  4.5 km/h 4.6 mph /  7.4 km/h 92 % 0.00 in /  0 mm
13:37 40.0 °F /  4.4 °C 37.9 °F /  3.3 °C 29.92 in /  1013.1 hPa East 3.5 mph /  5.6 km/h 6.0 mph /  9.7 km/h 92 % 0.00 in /  0 mm
13:42 39.9 °F /  4.4 °C 37.8 °F /  3.2 °C 29.92 in /  1013.1 hPa ENE 3.3 mph /  5.3 km/h 4.6 mph /  7.4 km/h 92 % 0.00 in /  0 mm
13:47 39.8 °F /  4.3 °C 37.7 °F /  3.2 °C 29.92 in /  1013.1 hPa ENE 3.7 mph /  6 km/h 8.1 mph /  13 km/h 92 % 0.00 in /  0 mm
13:52 39.7 °F /  4.3 °C 37.6 °F /  3.1 °C 29.92 in /  1013.1 hPa ENE 3.0 mph /  4.8 km/h 5.8 mph /  9.3 km/h 92 % 0.00 in /  0 mm
13:58 39.6 °F /  4.2 °C 37.5 °F /  3.1 °C 29.92 in /  1013.1 hPa ENE 3.5 mph /  5.6 km/h 4.6 mph /  7.4 km/h 92 % 0.00 in /  0 mm
14:03 39.5 °F /  4.2 °C 37.4 °F /  3 °C 29.92 in /  1013.1 hPa ENE 3.7 mph /  6 km/h 7.0 mph /  11.3 km/h 92 % 0.00 in /  0 mm
14:08 39.4 °F /  4.1 °C 37.3 °F /  2.9 °C 29.92 in /  1013.1 hPa ENE 3.4 mph /  5.5 km/h 5.8 mph /  9.3 km/h 92 % 0.00 in /  0 mm
14:13 39.5 °F /  4.2 °C 37.4 °F /  3 °C 29.92 in /  1013.1 hPa ENE 3.2 mph /  5.1 km/h 4.6 mph /  7.4 km/h 92 % 0.00 in /  0 mm
14:18 39.5 °F /  4.2 °C 37.4 °F /  3 °C 29.92 in /  1013.1 hPa ENE 3.7 mph /  6 km/h 5.8 mph /  9.3 km/h 92 % 0.00 in /  0 mm
14:23 39.4 °F /  4.1 °C 37.3 °F /  2.9 °C 29.92 in /  1013.1 hPa ENE 4.5 mph /  7.2 km/h 6.9 mph /  11.1 km/h 92 % 0.00 in /  0 mm
14:28 39.3 °F /  4.1 °C 37.2 °F /  2.9 °C 29.92 in /  1013.1 hPa ENE 5.6 mph /  9 km/h 8.1 mph /  13 km/h 92 % 0.00 in /  0 mm
14:33 39.3 °F /  4.1 °C 37.2 °F /  2.9 °C 29.91 in /  1012.8 hPa ENE 5.3 mph /  8.5 km/h 9.2 mph /  14.8 km/h 92 % 0.00 in /  0 mm
14:38 39.3 °F /  4.1 °C 37.4 °F /  3 °C 29.91 in /  1012.8 hPa East 3.6 mph /  5.8 km/h 6.0 mph /  9.7 km/h 93 % 0.00 in /  0 mm
14:43 39.4 °F /  4.1 °C 37.5 °F /  3.1 °C 29.91 in /  1012.8 hPa ENE 5.4 mph /  8.7 km/h 8.1 mph /  13 km/h 93 % 0.00 in /  0 mm
14:48 39.4 °F /  4.1 °C 37.5 °F /  3.1 °C 29.91 in /  1012.8 hPa East 6.7 mph /  10.8 km/h 8.1 mph /  13 km/h 93 % 0.00 in /  0 mm
14:53 39.5 °F /  4.2 °C 37.6 °F /  3.1 °C 29.91 in /  1012.8 hPa East 5.9 mph /  9.5 km/h 10.4 mph /  16.7 km/h 93 % 0.00 in /  0 mm
14:58 39.4 °F /  4.1 °C 37.5 °F /  3.1 °C 29.91 in /  1012.8 hPa East 6.3 mph /  10.1 km/h 10.4 mph /  16.7 km/h 93 % 0.00 in /  0 mm
15:03 39.4 °F /  4.1 °C 37.5 °F /  3.1 °C 29.91 in /  1012.8 hPa East 4.6 mph /  7.4 km/h 8.1 mph /  13 km/h 93 % 0.00 in /  0 mm
15:08 39.4 °F /  4.1 °C 37.5 °F /  3.1 °C 29.91 in /  1012.8 hPa ENE 4.6 mph /  7.4 km/h 6.9 mph /  11.1 km/h 93 % 0.00 in /  0 mm
15:13 39.3 °F /  4.1 °C 37.4 °F /  3 °C 29.91 in /  1012.8 hPa ENE 4.5 mph /  7.2 km/h 6.9 mph /  11.1 km/h 93 % 0.00 in /  0 mm
15:18 39.3 °F /  4.1 °C 37.4 °F /  3 °C 29.91 in /  1012.8 hPa East 4.9 mph /  7.9 km/h 7.0 mph /  11.3 km/h 93 % 0.00 in /  0 mm
15:23 39.3 °F /  4.1 °C 37.4 °F /  3 °C 29.91 in /  1012.8 hPa ENE 4.8 mph /  7.7 km/h 8.1 mph /  13 km/h 93 % 0.00 in /  0 mm
15:28 39.2 °F /  4 °C 37.3 °F /  2.9 °C 29.91 in /  1012.8 hPa ENE 3.9 mph /  6.3 km/h 5.8 mph /  9.3 km/h 93 % 0.00 in /  0 mm
15:33 39.2 °F /  4 °C 37.3 °F /  2.9 °C 29.91 in /  1012.8 hPa ENE 3.9 mph /  6.3 km/h 6.9 mph /  11.1 km/h 93 % 0.00 in /  0 mm
15:38 39.1 °F /  3.9 °C 37.2 °F /  2.9 °C 29.91 in /  1012.8 hPa ENE 3.9 mph /  6.3 km/h 6.9 mph /  11.1 km/h 93 % 0.00 in /  0 mm
15:43 39.1 °F /  3.9 °C 37.2 °F /  2.9 °C 29.91 in /  1012.8 hPa ENE 4.5 mph /  7.2 km/h 5.8 mph /  9.3 km/h 93 % 0.00 in /  0 mm
15:48 39.0 °F /  3.9 °C 37.1 °F /  2.8 °C 29.91 in /  1012.8 hPa East 7.3 mph /  11.7 km/h 9.2 mph /  14.8 km/h 93 % 0.00 in /  0 mm
15:53 38.9 °F /  3.8 °C 37.0 °F /  2.8 °C 29.91 in /  1012.8 hPa ENE 5.3 mph /  8.5 km/h 6.9 mph /  11.1 km/h 93 % 0.00 in /  0 mm
15:59 38.8 °F /  3.8 °C 36.9 °F /  2.7 °C 29.91 in /  1012.8 hPa ENE 4.8 mph /  7.7 km/h 7.0 mph /  11.3 km/h 93 % 0.00 in /  0 mm
16:04 38.7 °F /  3.7 °C 36.9 °F /  2.7 °C 29.91 in /  1012.8 hPa ENE 5.0 mph /  8 km/h 6.9 mph /  11.1 km/h 93 % 0.00 in /  0 mm
16:09 38.7 °F /  3.7 °C 36.9 °F /  2.7 °C 29.91 in /  1012.8 hPa ENE 3.6 mph /  5.8 km/h 8.1 mph /  13 km/h 93 % 0.00 in /  0 mm
16:14 38.5 °F /  3.6 °C 36.7 °F /  2.6 °C 29.91 in /  1012.8 hPa ENE 5.7 mph /  9.2 km/h 9.2 mph /  14.8 km/h 93 % 0.00 in /  0 mm
16:19 38.4 °F /  3.6 °C 36.6 °F /  2.6 °C 29.91 in /  1012.8 hPa East 4.8 mph /  7.7 km/h 8.1 mph /  13 km/h 93 % 0.00 in /  0 mm
16:24 38.3 °F /  3.5 °C 36.5 °F /  2.5 °C 29.91 in /  1012.8 hPa ENE 6.6 mph /  10.6 km/h 9.2 mph /  14.8 km/h 93 % 0.00 in /  0 mm
16:29 38.2 °F /  3.4 °C 36.4 °F /  2.4 °C 29.91 in /  1012.8 hPa ENE 5.1 mph /  8.2 km/h 8.1 mph /  13 km/h 93 % 0.00 in /  0 mm
16:34 38.2 °F /  3.4 °C 36.6 °F /  2.6 °C 29.91 in /  1012.8 hPa ENE 6.8 mph /  10.9 km/h 9.2 mph /  14.8 km/h 94 % 0.00 in /  0 mm
16:39 38.2 °F /  3.4 °C 36.6 °F /  2.6 °C 29.92 in /  1013.1 hPa ENE 4.5 mph /  7.2 km/h 8.0 mph /  12.9 km/h 94 % 0.00 in /  0 mm
16:44 38.2 °F /  3.4 °C 36.6 °F /  2.6 °C 29.92 in /  1013.1 hPa ENE 5.8 mph /  9.3 km/h 8.1 mph /  13 km/h 94 % 0.00 in /  0 mm
16:49 38.1 °F /  3.4 °C 36.5 °F /  2.5 °C 29.91 in /  1012.8 hPa ENE 6.8 mph /  10.9 km/h 10.4 mph /  16.7 km/h 94 % 0.00 in /  0 mm
16:54 38.1 °F /  3.4 °C 36.5 °F /  2.5 °C 29.92 in /  1013.1 hPa East 5.1 mph /  8.2 km/h 8.1 mph /  13 km/h 94 % 0.00 in /  0 mm
16:59 38.0 °F /  3.3 °C 36.4 °F /  2.4 °C 29.92 in /  1013.1 hPa ENE 5.3 mph /  8.5 km/h 9.2 mph /  14.8 km/h 94 % 0.00 in /  0 mm
17:04 38.0 °F /  3.3 °C 36.4 °F /  2.4 °C 29.92 in /  1013.1 hPa East 7.2 mph /  11.6 km/h 8.1 mph /  13 km/h 94 % 0.00 in /  0 mm
17:09 38.0 °F /  3.3 °C 36.4 °F /  2.4 °C 29.92 in /  1013.1 hPa East 5.4 mph /  8.7 km/h 10.4 mph /  16.7 km/h 94 % 0.00 in /  0 mm
17:10 38.0 °F /  3.3 °C 36.4 °F /  2.4 °C 29.92 in /  1013.1 hPa East 6.2 mph /  10 km/h 10.4 mph /  16.7 km/h 94 % 0.00 in /  0 mm
17:15 37.9 °F /  3.3 °C 36.3 °F /  2.4 °C 29.92 in /  1013.1 hPa East 7.2 mph /  11.6 km/h 10.0 mph /  16.1 km/h 94 % 0.00 in /  0 mm
17:20 37.9 °F /  3.3 °C 36.3 °F /  2.4 °C 29.92 in /  1013.1 hPa East 5.8 mph /  9.3 km/h 8.1 mph /  13 km/h 94 % 0.00 in /  0 mm
17:25 37.8 °F /  3.2 °C 36.2 °F /  2.3 °C 29.92 in /  1013.1 hPa ENE 6.2 mph /  10 km/h 8.1 mph /  13 km/h 94 % 0.00 in /  0 mm
17:30 37.8 °F /  3.2 °C 36.2 °F /  2.3 °C 29.92 in /  1013.1 hPa East 5.5 mph /  8.9 km/h 8.1 mph /  13 km/h 94 % 0.00 in /  0 mm
17:35 37.7 °F /  3.2 °C 36.1 °F /  2.3 °C 29.92 in /  1013.1 hPa East 5.1 mph /  8.2 km/h 8.1 mph /  13 km/h 94 % 0.00 in /  0 mm
17:40 37.7 °F /  3.2 °C 36.1 °F /  2.3 °C 29.92 in /  1013.1 hPa East 5.2 mph /  8.4 km/h 8.1 mph /  13 km/h 94 % 0.00 in /  0 mm
17:45 37.6 °F /  3.1 °C 36.0 °F /  2.2 °C 29.92 in /  1013.1 hPa East 6.0 mph /  9.7 km/h 8.1 mph /  13 km/h 94 % 0.00 in /  0 mm
17:50 37.6 °F /  3.1 °C 36.0 °F /  2.2 °C 29.92 in /  1013.1 hPa East 6.2 mph /  10 km/h 8.1 mph /  13 km/h 94 % 0.00 in /  0 mm
17:55 37.6 °F /  3.1 °C 36.0 °F /  2.2 °C 29.92 in /  1013.1 hPa East 5.2 mph /  8.4 km/h 8.1 mph /  13 km/h 94 % 0.00 in /  0 mm
18:00 37.5 °F /  3.1 °C 35.9 °F /  2.2 °C 29.92 in /  1013.1 hPa East 5.4 mph /  8.7 km/h 8.1 mph /  13 km/h 94 % 0.00 in /  0 mm
18:05 37.5 °F /  3.1 °C 35.9 °F /  2.2 °C 29.92 in /  1013.1 hPa East 6.2 mph /  10 km/h 7.0 mph /  11.3 km/h 94 % 0.00 in /  0 mm
18:10 37.5 °F /  3.1 °C 35.9 °F /  2.2 °C 29.92 in /  1013.1 hPa ENE 4.7 mph /  7.6 km/h 6.9 mph /  11.1 km/h 94 % 0.00 in /  0 mm
18:15 37.5 °F /  3.1 °C 35.9 °F /  2.2 °C 29.92 in /  1013.1 hPa ENE 5.4 mph /  8.7 km/h 8.1 mph /  13 km/h 94 % 0.00 in /  0 mm
18:20 37.5 °F /  3.1 °C 35.9 °F /  2.2 °C 29.92 in /  1013.1 hPa East 6.0 mph /  9.7 km/h 8.1 mph /  13 km/h 94 % 0.00 in /  0 mm
18:25 37.4 °F /  3 °C 35.8 °F /  2.1 °C 29.92 in /  1013.1 hPa East 5.2 mph /  8.4 km/h 9.2 mph /  14.8 km/h 94 % 0.00 in /  0 mm
18:30 37.4 °F /  3 °C 35.8 °F /  2.1 °C 29.93 in /  1013.4 hPa East 5.5 mph /  8.9 km/h 8.1 mph /  13 km/h 94 % 0.00 in /  0 mm
18:35 37.4 °F /  3 °C 35.8 °F /  2.1 °C 29.93 in /  1013.4 hPa East 4.8 mph /  7.7 km/h 6.9 mph /  11.1 km/h 94 % 0.00 in /  0 mm
18:40 37.4 °F /  3 °C 35.8 °F /  2.1 °C 29.93 in /  1013.4 hPa ENE 3.7 mph /  6 km/h 6.9 mph /  11.1 km/h 94 % 0.00 in /  0 mm
18:45 37.4 °F /  3 °C 35.8 °F /  2.1 °C 29.92 in /  1013.1 hPa East 5.2 mph /  8.4 km/h 7.0 mph /  11.3 km/h 94 % 0.00 in /  0 mm
18:50 37.4 °F /  3 °C 35.8 °F /  2.1 °C 29.92 in /  1013.1 hPa ENE 4.8 mph /  7.7 km/h 6.9 mph /  11.1 km/h 94 % 0.00 in /  0 mm
18:55 37.4 °F /  3 °C 35.8 °F /  2.1 °C 29.92 in /  1013.1 hPa ENE 5.2 mph /  8.4 km/h 9.2 mph /  14.8 km/h 94 % 0.00 in /  0 mm
19:00 37.3 °F /  2.9 °C 36.0 °F /  2.2 °C 29.92 in /  1013.1 hPa ENE 6.0 mph /  9.7 km/h 8.0 mph /  12.9 km/h 95 % 0.00 in /  0 mm
19:05 37.3 °F /  2.9 °C 36.0 °F /  2.2 °C 29.92 in /  1013.1 hPa ENE 4.9 mph /  7.9 km/h 8.1 mph /  13 km/h 95 % 0.00 in /  0 mm
19:11 37.3 °F /  2.9 °C 36.0 °F /  2.2 °C 29.92 in /  1013.1 hPa ENE 5.0 mph /  8 km/h 8.0 mph /  12.9 km/h 95 % 0.00 in /  0 mm
19:16 37.2 °F /  2.9 °C 36.0 °F /  2.2 °C 29.92 in /  1013.1 hPa ENE 8.0 mph /  12.9 km/h 10.0 mph /  16.1 km/h 95 % 0.00 in /  0 mm
19:21 37.2 °F /  2.9 °C 35.9 °F /  2.2 °C 29.91 in /  1012.8 hPa ENE 6.0 mph /  9.7 km/h 10.0 mph /  16.1 km/h 95 % 0.00 in /  0 mm
19:25 37.2 °F /  2.9 °C 35.9 °F /  2.2 °C 29.91 in /  1012.8 hPa ENE 6.6 mph /  10.6 km/h 9.0 mph /  14.5 km/h 95 % 0.00 in /  0 mm
19:31 37.2 °F /  2.9 °C 35.9 °F /  2.2 °C 29.91 in /  1012.8 hPa ENE 6.0 mph /  9.7 km/h 9.0 mph /  14.5 km/h 95 % 0.00 in /  0 mm
19:36 37.1 °F /  2.8 °C 35.8 °F /  2.1 °C 29.91 in /  1012.8 hPa ENE 7.0 mph /  11.3 km/h 10.0 mph /  16.1 km/h 95 % 0.00 in /  0 mm
19:41 37.1 °F /  2.8 °C 35.8 °F /  2.1 °C 29.91 in /  1012.8 hPa ENE 6.0 mph /  9.7 km/h 9.0 mph /  14.5 km/h 95 % 0.00 in /  0 mm
19:46 37.1 °F /  2.8 °C 35.8 °F /  2.1 °C 29.92 in /  1013.1 hPa ENE 4.8 mph /  7.7 km/h 8.1 mph /  13 km/h 95 % 0.00 in /  0 mm
19:51 37.1 °F /  2.8 °C 35.8 °F /  2.1 °C 29.92 in /  1013.1 hPa ENE 7.0 mph /  11.3 km/h 9.0 mph /  14.5 km/h 95 % 0.00 in /  0 mm
19:56 37.0 °F /  2.8 °C 35.7 °F /  2.1 °C 29.91 in /  1012.8 hPa ENE 6.0 mph /  9.7 km/h 10.0 mph /  16.1 km/h 95 % 0.00 in /  0 mm
20:06 37.0 °F /  2.8 °C 35.7 °F /  2.1 °C 29.91 in /  1012.8 hPa ENE 5.8 mph /  9.3 km/h 9.2 mph /  14.8 km/h 95 % 0.00 in /  0 mm
20:11 37.0 °F /  2.8 °C 36.0 °F /  2.2 °C 29.91 in /  1012.8 hPa ENE 5.4 mph /  8.7 km/h 10.4 mph /  16.7 km/h 96 % 0.00 in /  0 mm
20:16 37.0 °F /  2.8 °C 36.0 °F /  2.2 °C 29.91 in /  1012.8 hPa ENE 7.7 mph /  12.4 km/h 11.5 mph /  18.5 km/h 96 % 0.00 in /  0 mm
20:21 37.0 °F /  2.8 °C 36.0 °F /  2.2 °C 29.91 in /  1012.8 hPa East 6.0 mph /  9.7 km/h 10.4 mph /  16.7 km/h 96 % 0.00 in /  0 mm
20:26 36.9 °F /  2.7 °C 35.9 °F /  2.2 °C 29.91 in /  1012.8 hPa ENE 6.6 mph /  10.6 km/h 9.2 mph /  14.8 km/h 96 % 0.00 in /  0 mm
20:36 36.9 °F /  2.7 °C 35.9 °F /  2.2 °C 29.90 in /  1012.4 hPa NE 7.6 mph /  12.2 km/h 10.4 mph /  16.7 km/h 96 % 0.00 in /  0 mm
20:41 36.9 °F /  2.7 °C 35.9 °F /  2.2 °C 29.90 in /  1012.4 hPa ENE 6.3 mph /  10.1 km/h 10.4 mph /  16.7 km/h 96 % 0.00 in /  0 mm
20:46 36.9 °F /  2.7 °C 35.9 °F /  2.2 °C 29.90 in /  1012.4 hPa ENE 5.6 mph /  9 km/h 8.0 mph /  12.9 km/h 96 % 0.00 in /  0 mm
20:51 36.8 °F /  2.7 °C 35.8 °F /  2.1 °C 29.90 in /  1012.4 hPa ENE 7.3 mph /  11.7 km/h 11.5 mph /  18.5 km/h 96 % 0.00 in /  0 mm
20:56 36.8 °F /  2.7 °C 35.8 °F /  2.1 °C 29.90 in /  1012.4 hPa ENE 4.1 mph /  6.6 km/h 5.8 mph /  9.3 km/h 96 % 0.00 in /  0 mm
21:06 36.8 °F /  2.7 °C 35.8 °F /  2.1 °C 29.89 in /  1012.1 hPa ENE 5.3 mph /  8.5 km/h 9.2 mph /  14.8 km/h 96 % 0.00 in /  0 mm
21:11 36.8 °F /  2.7 °C 35.8 °F /  2.1 °C 29.89 in /  1012.1 hPa ENE 5.9 mph /  9.5 km/h 8.1 mph /  13 km/h 96 % 0.00 in /  0 mm
21:16 36.8 °F /  2.7 °C 35.8 °F /  2.1 °C 29.88 in /  1011.7 hPa ENE 6.1 mph /  9.8 km/h 10.4 mph /  16.7 km/h 96 % 0.00 in /  0 mm
21:21 36.7 °F /  2.6 °C 35.7 °F /  2.1 °C 29.88 in /  1011.7 hPa East 4.7 mph /  7.6 km/h 6.0 mph /  9.7 km/h 96 % 0.00 in /  0 mm
21:26 36.7 °F /  2.6 °C 35.7 °F /  2.1 °C 29.88 in /  1011.7 hPa East 5.6 mph /  9 km/h 8.1 mph /  13 km/h 96 % 0.00 in /  0 mm
21:31 36.7 °F /  2.6 °C 35.9 °F /  2.2 °C 29.88 in /  1011.7 hPa East 3.9 mph /  6.3 km/h 5.0 mph /  8 km/h 97 % 0.00 in /  0 mm
21:36 36.7 °F /  2.6 °C 35.9 °F /  2.2 °C 29.88 in /  1011.7 hPa ENE 5.3 mph /  8.5 km/h 6.9 mph /  11.1 km/h 97 % 0.00 in /  0 mm
21:42 36.6 °F /  2.6 °C 35.8 °F /  2.1 °C 29.87 in /  1011.4 hPa ENE 5.7 mph /  9.2 km/h 7.0 mph /  11.3 km/h 97 % 0.00 in /  0 mm
21:47 36.6 °F /  2.6 °C 35.8 °F /  2.1 °C 29.87 in /  1011.4 hPa ENE 5.9 mph /  9.5 km/h 10.4 mph /  16.7 km/h 97 % 0.00 in /  0 mm
21:52 36.6 °F /  2.6 °C 35.8 °F /  2.1 °C 29.86 in /  1011.1 hPa ENE 7.2 mph /  11.6 km/h 9.2 mph /  14.8 km/h 97 % 0.00 in /  0 mm
22:02 36.6 °F /  2.6 °C 35.8 °F /  2.1 °C 29.87 in /  1011.4 hPa ENE 4.8 mph /  7.7 km/h 7.0 mph /  11.3 km/h 97 % 0.00 in /  0 mm
22:07 36.6 °F /  2.6 °C 35.8 °F /  2.1 °C 29.86 in /  1011.1 hPa East 6.2 mph /  10 km/h 9.2 mph /  14.8 km/h 97 % 0.00 in /  0 mm
22:12 36.6 °F /  2.6 °C 35.8 °F /  2.1 °C 29.86 in /  1011.1 hPa ENE 5.1 mph /  8.2 km/h 8.0 mph /  12.9 km/h 97 % 0.00 in /  0 mm
22:17 36.6 °F /  2.6 °C 35.8 °F /  2.1 °C 29.86 in /  1011.1 hPa ENE 5.2 mph /  8.4 km/h 8.1 mph /  13 km/h 97 % 0.00 in /  0 mm
22:27 36.6 °F /  2.6 °C 35.8 °F /  2.1 °C 29.86 in /  1011.1 hPa East 4.8 mph /  7.7 km/h 6.9 mph /  11.1 km/h 97 % 0.00 in /  0 mm
22:32 36.6 °F /  2.6 °C 35.8 °F /  2.1 °C 29.86 in /  1011.1 hPa ENE 3.6 mph /  5.8 km/h 4.6 mph /  7.4 km/h 97 % 0.00 in /  0 mm
22:42 36.5 °F /  2.5 °C 35.7 °F /  2.1 °C 29.85 in /  1010.7 hPa ENE 6.1 mph /  9.8 km/h 8.1 mph /  13 km/h 97 % 0.00 in /  0 mm
22:47 36.5 °F /  2.5 °C 35.7 °F /  2.1 °C 29.85 in /  1010.7 hPa ENE 3.9 mph /  6.3 km/h 5.8 mph /  9.3 km/h 97 % 0.00 in /  0 mm
22:52 36.5 °F /  2.5 °C 35.7 °F /  2.1 °C 29.84 in /  1010.4 hPa ENE 5.1 mph /  8.2 km/h 8.1 mph /  13 km/h 97 % 0.00 in /  0 mm
22:57 36.4 °F /  2.4 °C 35.6 °F /  2 °C 29.84 in /  1010.4 hPa East 4.8 mph /  7.7 km/h 5.8 mph /  9.3 km/h 97 % 0.00 in /  0 mm
23:02 36.4 °F /  2.4 °C 35.6 °F /  2 °C 29.84 in /  1010.4 hPa ENE 3.5 mph /  5.6 km/h 6.9 mph /  11.1 km/h 97 % 0.00 in /  0 mm
23:07 36.4 °F /  2.4 °C 35.6 °F /  2 °C 29.84 in /  1010.4 hPa ENE 3.4 mph /  5.5 km/h 6.0 mph /  9.7 km/h 97 % 0.00 in /  0 mm
23:12 36.4 °F /  2.4 °C 35.6 °F /  2 °C 29.84 in /  1010.4 hPa ENE 2.8 mph /  4.5 km/h 8.1 mph /  13 km/h 97 % 0.00 in /  0 mm
23:17 36.4 °F /  2.4 °C 35.6 °F /  2 °C 29.84 in /  1010.4 hPa East 2.9 mph /  4.7 km/h 5.8 mph /  9.3 km/h 97 % 0.00 in /  0 mm
23:22 36.4 °F /  2.4 °C 35.6 °F /  2 °C 29.84 in /  1010.4 hPa ENE 3.6 mph /  5.8 km/h 4.6 mph /  7.4 km/h 97 % 0.00 in /  0 mm
23:27 36.4 °F /  2.4 °C 35.6 °F /  2 °C 29.84 in /  1010.4 hPa East 3.0 mph /  4.8 km/h 4.6 mph /  7.4 km/h 97 % 0.00 in /  0 mm
23:37 36.4 °F /  2.4 °C 35.6 °F /  2 °C 29.84 in /  1010.4 hPa ENE 3.0 mph /  4.8 km/h 4.0 mph /  6.4 km/h 97 % 0.00 in /  0 mm
23:48 36.4 °F /  2.4 °C 35.6 °F /  2 °C 29.84 in /  1010.4 hPa East 4.0 mph /  6.4 km/h 6.9 mph /  11.1 km/h 97 % 0.00 in /  0 mm
23:53 36.4 °F /  2.4 °C 35.6 °F /  2 °C 29.84 in /  1010.4 hPa East 4.0 mph /  6.4 km/h 5.8 mph /  9.3 km/h 97 % 0.00 in /  0 mm
23:58 36.4 °F /  2.4 °C 35.6 °F /  2 °C 29.84 in /  1010.4 hPa East 4.8 mph /  7.7 km/h 6.0 mph /  9.7 km/h 97 % 0.00 in /  0 mm
Crab Meadow Weather
Compliments of Weather Underground - 3 mb

Script developed by  Jim McMurry - jmcmurry@mwt.net Adapted for the template by  Wim van der Kuil - Leuven-Template.eu

Extremes: Alaska and Hawaii have the same heat record. In Pahala, Hawaii the temperature on April 27, 1931 was 100 degrees F. Alaska's state heat record is also 100 degrees F. on June 27, 1915 at Fort Yukon.